createdAt,value
2022-09-17T00:02:15.245Z,8.81
2022-09-17T00:07:24.255Z,8.63
2022-09-17T00:12:33.387Z,8.56
2022-09-17T00:17:42.365Z,8.44
2022-09-17T00:22:51.387Z,8.44
2022-09-17T00:28:00.552Z,8.38
2022-09-17T00:33:09.367Z,8.44
2022-09-17T00:38:18.286Z,8.5
2022-09-17T00:43:27.529Z,8.56
2022-09-17T00:48:36.284Z,8.63
2022-09-17T00:53:45.387Z,8.69
2022-09-17T00:58:54.492Z,8.81
2022-09-17T01:04:03.509Z,8.81
2022-09-17T01:09:12.959Z,8.56
2022-09-17T01:14:21.488Z,8.38
2022-09-17T01:19:30.314Z,8.13
2022-09-17T01:24:39.470Z,8
2022-09-17T01:29:48.326Z,7.87
2022-09-17T01:34:57.267Z,7.81
2022-09-17T01:40:06.452Z,7.75
2022-09-17T01:45:15.371Z,7.62
2022-09-17T02:00:31.595Z,7.5
2022-09-17T02:05:40.409Z,7.5
2022-09-17T02:10:49.472Z,7.5
2022-09-17T02:15:58.674Z,7.37
2022-09-17T02:21:07.539Z,7.31
2022-09-17T02:26:16.562Z,7.25
2022-09-17T02:41:21.791Z,7.12
2022-09-17T02:46:32.886Z,7.12
2022-09-17T02:51:42.163Z,7.31
2022-09-17T02:56:51.226Z,7.44
2022-09-17T03:02:00.278Z,7.5
2022-09-17T03:12:07.934Z,7.75
2022-09-17T03:17:16.693Z,7.94
2022-09-17T03:22:25.642Z,8.13
2022-09-17T03:27:34.896Z,8.56
2022-09-17T03:32:43.982Z,8.63
2022-09-17T03:37:52.922Z,8.75
2022-09-17T03:43:01.973Z,8.81
2022-09-17T03:48:10.843Z,8.81
2022-09-17T03:53:20.075Z,8.88
2022-09-17T03:58:29.035Z,9
2022-09-17T04:03:37.921Z,9
2022-09-17T04:08:47.085Z,9.06
2022-09-17T04:19:05.133Z,9.13
2022-09-17T04:24:14.040Z,9.19
2022-09-17T04:29:22.994Z,9.31
2022-09-17T04:34:32.329Z,9.25
2022-09-17T04:39:41.228Z,9.25
2022-09-17T04:44:50.346Z,9.38
2022-09-17T04:49:59.592Z,9.38
2022-09-17T04:55:08.464Z,9.44
2022-09-17T05:00:17.445Z,9.44
2022-09-17T05:05:26.530Z,9.44
2022-09-17T05:10:35.614Z,9.44
2022-09-17T05:15:44.619Z,9.56
2022-09-17T05:20:53.830Z,9.56
2022-09-17T05:26:02.798Z,9.56
2022-09-17T05:31:11.685Z,9.56
2022-09-17T05:41:18.901Z,9.5
2022-09-17T05:46:27.981Z,9.5
2022-09-17T05:51:37.053Z,9.5
2022-09-17T05:56:46.271Z,9.56
2022-09-17T06:01:58.174Z,9.56
2022-09-17T06:07:07.052Z,9.56
2022-09-17T06:12:16.209Z,9.63
2022-09-17T06:17:25.212Z,9.63
2022-09-17T06:27:32.926Z,9.88
2022-09-17T06:32:41.936Z,9.88
2022-09-17T06:37:51.070Z,9.94
2022-09-17T06:43:00.183Z,10
2022-09-17T06:48:09.187Z,10.13
2022-09-17T06:53:18.327Z,10.13
2022-09-17T07:03:36.553Z,10.13
2022-09-17T07:08:45.394Z,10.19
2022-09-17T07:13:54.402Z,10.31
2022-09-17T07:19:03.662Z,10.63
2022-09-17T07:24:12.564Z,10.75
2022-09-17T07:29:21.684Z,10.94
2022-09-17T07:34:30.939Z,11.12
2022-09-17T07:39:39.622Z,11.06
2022-09-17T07:44:48.763Z,11.44
2022-09-17T07:49:57.951Z,11.5
2022-09-17T07:55:07.199Z,12
2022-09-17T08:00:16.134Z,12
2022-09-17T08:05:25.139Z,12.13
2022-09-17T08:10:34.128Z,12.06
2022-09-17T08:15:42.999Z,12.06
2022-09-17T08:20:52.244Z,12.37
2022-09-17T08:26:01.372Z,12.81
2022-09-17T08:31:10.490Z,12.69
2022-09-17T08:36:19.375Z,12.63
2022-09-17T08:41:28.356Z,12.75
2022-09-17T08:46:57.974Z,13.5
2022-09-17T08:52:07.651Z,13.69
2022-09-17T08:57:16.454Z,13.69
2022-09-17T09:02:25.315Z,13.38
2022-09-17T09:07:33.922Z,12.88
2022-09-17T09:12:42.600Z,12.69
2022-09-17T09:17:51.722Z,13.13
2022-09-17T09:23:01.392Z,14
2022-09-17T09:28:10.837Z,14.63
2022-09-17T09:33:19.179Z,13.56
2022-09-17T09:38:27.852Z,12.69
2022-09-17T09:43:52.945Z,12.56
2022-09-17T09:48:46.800Z,13.56
2022-09-17T09:53:56.299Z,14.44
2022-09-17T10:13:54.023Z,13.75
2022-09-17T10:19:03.206Z,14.06
2022-09-17T10:24:11.978Z,13.88
2022-09-17T10:29:20.831Z,13.75
2022-09-17T10:34:29.751Z,13.56
2022-09-17T10:39:39.441Z,14.75
2022-09-17T10:44:49.378Z,16
2022-09-17T10:49:58.364Z,16.44
2022-09-17T10:55:07.268Z,16.37
2022-09-17T11:00:15.882Z,15.56
2022-09-17T11:05:24.377Z,15.13
2022-09-17T11:10:33.306Z,15.19
2022-09-17T11:15:42.687Z,15.19
2022-09-17T11:20:51.683Z,15
2022-09-17T11:26:01.262Z,14.75
2022-09-17T11:31:09.717Z,14.87
2022-09-17T11:36:18.824Z,15.44
2022-09-17T11:41:27.941Z,15.38
2022-09-17T11:46:37.130Z,15.19
2022-09-17T11:51:54.818Z,15.38
2022-09-17T11:57:07.677Z,15.63
2022-09-17T12:02:13.289Z,15.63
2022-09-17T12:07:21.785Z,15.19
2022-09-17T12:12:49.940Z,15
2022-09-17T12:17:39.941Z,15.25
2022-09-17T12:22:48.843Z,15.25
2022-09-17T12:33:10.405Z,15.56
2022-09-17T12:38:19.919Z,16.44
2022-09-17T12:43:29.167Z,16.5
2022-09-17T12:48:38.088Z,16.69
2022-09-17T12:53:46.967Z,16.56
2022-09-17T12:58:56.100Z,17
2022-09-17T13:09:13.913Z,16.94
2022-09-17T13:14:22.662Z,16.69
2022-09-17T13:19:31.402Z,16.56
2022-09-17T13:24:40.441Z,16.62
2022-09-17T13:29:49.516Z,16.69
2022-09-17T13:34:58.423Z,16.69
2022-09-17T13:40:07.717Z,17.06
2022-09-17T13:45:17.065Z,18.06
2022-09-17T13:50:26.565Z,19.31
2022-09-17T13:55:35.148Z,18.31
2022-09-17T14:00:43.983Z,16.94
2022-09-17T14:05:52.733Z,16.56
2022-09-17T14:11:02.436Z,19.44
2022-09-17T14:16:11.578Z,17.87
2022-09-17T14:21:20.420Z,18
2022-09-17T14:26:29.978Z,19.81
2022-09-17T14:31:38.877Z,19.44
2022-09-17T14:36:47.200Z,17.12
2022-09-17T14:41:56.535Z,18.75
2022-09-17T14:47:05.691Z,18.06
2022-09-17T14:52:14.478Z,17.56
2022-09-17T14:57:23.548Z,16.75
2022-09-17T15:02:32.475Z,17.12
2022-09-17T15:07:44.880Z,16.62
2022-09-17T15:12:50.207Z,16.12
2022-09-17T15:17:58.915Z,16
2022-09-17T15:23:07.842Z,15.81
2022-09-17T15:28:16.964Z,15.81
2022-09-17T15:33:25.931Z,15.88
2022-09-17T15:38:34.952Z,15.56
2022-09-17T15:43:43.996Z,15.44
2022-09-17T15:48:53.003Z,15.25
2022-09-17T15:54:02.060Z,15.25
2022-09-17T15:59:11.395Z,15.19
2022-09-17T16:04:20.226Z,15.5
2022-09-17T16:09:32.297Z,15.63
2022-09-17T16:14:41.332Z,15.13
2022-09-17T16:19:50.111Z,14.94
2022-09-17T16:24:59.087Z,14.69
2022-09-17T16:30:08.179Z,14.5
2022-09-17T16:35:17.569Z,13.69
2022-09-17T16:40:25.736Z,13.25
2022-09-17T16:45:34.638Z,13.06
2022-09-17T16:50:43.372Z,12.88
2022-09-17T16:55:52.414Z,12.44
2022-09-17T17:01:01.362Z,12.25
2022-09-17T17:06:10.138Z,11.88
2022-09-17T17:11:19.074Z,11.56
2022-09-17T17:16:28.213Z,11.31
2022-09-17T17:21:37.038Z,11.25
2022-09-17T17:26:46.074Z,11.19
2022-09-17T17:31:55.274Z,11.25
2022-09-17T17:37:04.119Z,11.25
2022-09-17T17:42:13.240Z,11.25
2022-09-17T17:52:20.410Z,11.06
2022-09-17T17:57:29.339Z,10.88
2022-09-17T18:02:38.479Z,10.81
2022-09-17T18:07:47.538Z,10.88
2022-09-17T18:12:56.471Z,10.75
2022-09-17T18:18:06.454Z,10.81
2022-09-17T18:23:14.585Z,10.63
2022-09-17T18:28:23.442Z,10.56
2022-09-17T18:33:32.563Z,10.5
2022-09-17T18:38:41.710Z,10.69
2022-09-17T18:43:50.616Z,10.69
2022-09-17T18:48:59.576Z,10.69
2022-09-17T18:54:08.664Z,10.81
2022-09-17T18:59:17.570Z,10.94
2022-09-17T19:04:26.690Z,11.06
2022-09-17T19:09:35.858Z,11.19
2022-09-17T19:14:44.608Z,11.06
2022-09-17T19:19:53.561Z,10.94
2022-09-17T19:25:02.557Z,10.81
2022-09-17T19:30:11.613Z,10.75
2022-09-17T19:40:29.687Z,10.75
2022-09-17T19:45:38.569Z,10.69
2022-09-17T19:50:47.427Z,10.63
2022-09-17T19:55:56.676Z,10.63
2022-09-17T20:01:05.529Z,10.63
2022-09-17T20:06:14.449Z,10.56
2022-09-17T20:11:23.792Z,10.5
2022-09-17T20:16:32.887Z,10.44
2022-09-17T20:21:41.770Z,10.5
2022-09-17T20:26:50.888Z,10.5
2022-09-17T20:31:59.830Z,10.63
2022-09-17T20:37:13.338Z,10.69
2022-09-17T20:42:18.029Z,10.69
2022-09-17T20:47:26.952Z,10.75
2022-09-17T20:52:36.017Z,10.81
2022-09-17T20:57:45.187Z,10.88
2022-09-17T21:02:54.206Z,10.88
2022-09-17T21:08:03.115Z,10.81
2022-09-17T21:13:12.330Z,10.81
2022-09-17T21:18:21.301Z,10.75
2022-09-17T21:28:39.606Z,10.81
2022-09-17T21:33:51.480Z,10.81
2022-09-17T21:39:00.406Z,10.81
2022-09-17T21:44:09.379Z,10.81
2022-09-17T21:49:18.245Z,10.81
2022-09-17T21:54:27.235Z,10.75
2022-09-17T21:59:36.375Z,10.63
2022-09-17T22:04:45.236Z,10.63
2022-09-17T22:09:54.333Z,10.69
2022-09-17T22:15:03.386Z,10.56
2022-09-17T22:20:12.348Z,10.63
2022-09-17T22:25:21.475Z,10.69
2022-09-17T22:30:30.430Z,10.63
2022-09-17T22:35:39.186Z,10.63
2022-09-17T22:40:48.127Z,10.63
2022-09-17T22:45:57.182Z,10.63
2022-09-17T22:51:06.026Z,10.63
2022-09-17T22:56:15.016Z,10.63
2022-09-17T23:01:24.135Z,10.69
2022-09-17T23:06:33.021Z,10.63
2022-09-17T23:11:41.955Z,10.56
2022-09-17T23:16:51.202Z,10.5
2022-09-17T23:22:00.005Z,10.44
2022-09-17T23:27:09.005Z,10.44
2022-09-17T23:32:18.070Z,10.38
2022-09-17T23:37:26.851Z,10.31
2022-09-17T23:42:35.765Z,10.38
2022-09-17T23:52:42.981Z,10.38
2022-09-17T23:57:52.010Z,10.5
